Terminal Aerodrome Forecast
Issued by NWS Upton, NY

Home | Current Version | Previous Version | Text Only | Print | Product List | Glossary On
Versions: 1 2 3 4 5 6 7 8 9 10 11 12 13 14 15 16 17 18 19 20 21 22 23 24 25 26 27 28 29 30 31
483
FTUS41 KOKX 252348
TAFEWR
TAF
KEWR 252348Z 2600/2706 04008KT P6SM SCT025 BKN040
     FM260100 04008KT P6SM OVC015
     FM260700 04009KT P6SM OVC020
     FM261100 05011KT P6SM SCT025 OVC035
     FM261300 06012KT 6SM -RA OVC025
     FM262000 07012KT 5SM -RA BR SCT008 OVC015
     FM270200 07009KT 3SM -DZ BR SCT004 OVC008=

USA.gov is the U.S. government's official web portal to all federal, state and local government web resources and services.